Time;durP1;ratioP1;P1;durP2;ratioP2;P2;SDS_P1;SDS_P2;PMS_P1;PMS_P2;Temp;Humidity;BMP_temperature;BMP_pressure;BME280_temperature;BME280_humidity;BME280_pressure;Samples;Min_cycle;Max_cycle;Signal;HPM_P1;HPM_P2
2023/05/01 00:00:26;;;;;;;;;;;;;;;22.11;22.00;98675.00;5113642;28;20290;-83
2023/05/01 00:02:53;;;;;;;;;;;;;;;22.07;21.61;98668.63;5114450;28;19927;-83
2023/05/01 00:05:19;;;;;;;;;;;;;;;21.99;22.42;98671.47;5116339;28;19978;-83
2023/05/01 00:07:45;;;;;;;;;;;;;;;21.90;21.50;98673.91;5112970;28;19920;-84
2023/05/01 00:10:11;;;;;;;;;;;;;;;21.70;21.87;98669.16;5114805;28;19959;-84
2023/05/01 00:12:37;;;;;;;;;;;;;;;21.67;21.85;98676.34;5114832;28;19955;-84
2023/05/01 00:15:03;;;;;;;;;;;;;;;21.66;22.07;98679.53;5115754;28;20360;-83
2023/05/01 00:17:29;;;;;;;;;;;;;;;21.80;21.83;98676.69;5114282;28;20291;-83
2023/05/01 00:19:55;;;;;;;;;;;;;;;21.91;21.31;98669.88;5113607;28;19930;-83
2023/05/01 00:22:21;;;;;;;;;;;;;;;21.90;21.77;98670.31;5110075;28;19949;-84
2023/05/01 00:24:48;;;;;;;;;;;;;;;22.01;21.37;98674.66;5103925;28;19920;-84
2023/05/01 00:27:15;;;;;;;;;;;;;;;21.97;21.27;98675.88;5106297;28;19959;-84
2023/05/01 00:29:41;;;;;;;;;;;;;;;21.57;21.83;98674.38;5100993;28;19920;-84
2023/05/01 00:32:07;;;;;;;;;;;;;;;21.47;21.68;98677.19;5110344;28;19916;-83
2023/05/01 00:34:33;;;;;;;;;;;;;;;21.65;21.88;98672.34;5107742;28;20295;-84
2023/05/01 00:36:59;;;;;;;;;;;;;;;21.68;21.52;98675.13;5110326;28;20320;-84
2023/05/01 00:39:25;;;;;;;;;;;;;;;21.02;22.56;98670.41;5112536;28;20006;-84
2023/05/01 00:41:52;;;;;;;;;;;;;;;21.22;22.06;98675.22;5112787;28;19993;-84
2023/05/01 00:44:18;;;;;;;;;;;;;;;21.23;21.50;98678.81;5114514;28;20018;-84
2023/05/01 00:46:44;;;;;;;;;;;;;;;21.08;22.72;98677.22;5112750;28;19973;-84
2023/05/01 00:49:10;;;;;;;;;;;;;;;21.29;21.97;98680.00;5088108;28;20330;-84
2023/05/01 00:51:36;;;;;;;;;;;;;;;21.45;21.68;98679.59;5114973;28;19924;-83
2023/05/01 00:54:02;;;;;;;;;;;;;;;21.54;21.30;98669.56;5115229;28;20348;-84
2023/05/01 00:56:29;;;;;;;;;;;;;;;21.55;22.16;98671.19;5111541;28;20396;-84
2023/05/01 00:58:56;;;;;;;;;;;;;;;21.78;21.77;98670.72;5111958;28;20309;-83
2023/05/01 01:01:22;;;;;;;;;;;;;;;21.41;21.58;98670.41;5111302;28;19926;-83
2023/05/01 01:03:51;;;;;;;;;;;;;;;21.07;22.20;98684.81;5088323;28;19920;-83
2023/05/01 01:06:30;;;;;;;;;;;;;;;21.10;22.04;98680.41;5114379;28;19958;-83
2023/05/01 01:09:08;;;;;;;;;;;;;;;21.21;21.96;98675.63;5113253;28;19927;-83
2023/05/01 01:11:41;;;;;;;;;;;;;;;21.46;21.88;98673.59;5107829;28;19924;-83
2023/05/01 01:14:15;;;;;;;;;;;;;;;21.53;22.00;98675.56;5101559;28;19924;-84
2023/05/01 01:16:44;;;;;;;;;;;;;;;21.68;21.14;98677.91;5106257;28;20390;-83
2023/05/01 01:19:29;;;;;;;;;;;;;;;21.71;21.27;98674.31;5113420;28;20398;-84
2023/05/01 01:22:00;;;;;;;;;;;;;;;21.68;21.50;98666.75;5111079;28;20006;-84
2023/05/01 01:24:42;;;;;;;;;;;;;;;21.80;21.24;98673.88;5111231;28;20488;-84
2023/05/01 01:27:18;;;;;;;;;;;;;;;21.46;21.17;98673.59;5112374;28;20420;-84
2023/05/01 01:30:10;;;;;;;;;;;;;;;21.19;21.54;98664.84;5112637;28;19926;-83
2023/05/01 01:32:45;;;;;;;;;;;;;;;21.05;21.71;98678.03;5110330;28;19924;-84
2023/05/01 01:35:30;;;;;;;;;;;;;;;21.00;21.80;98659.66;5103919;28;19923;-84
2023/05/01 01:38:02;;;;;;;;;;;;;;;21.10;21.84;98670.03;5109828;28;20031;-84
2023/05/01 01:40:33;;;;;;;;;;;;;;;21.28;21.77;98673.59;5108524;28;19927;-84
2023/05/01 01:43:02;;;;;;;;;;;;;;;21.44;21.26;98672.41;5101068;28;19962;-84
2023/05/01 01:45:38;;;;;;;;;;;;;;;21.55;21.38;98670.38;5104260;28;19923;-84
2023/05/01 01:48:06;;;;;;;;;;;;;;;21.50;21.11;98660.41;5109783;28;20312;-84
2023/05/01 01:50:32;;;;;;;;;;;;;;;21.56;20.80;98666.41;5105802;28;19920;-83
2023/05/01 01:53:01;;;;;;;;;;;;;;;21.56;20.80;98660.81;5109996;28;20353;-84
2023/05/01 01:55:29;;;;;;;;;;;;;;;21.52;21.05;98657.22;5111732;28;19926;-84
2023/05/01 01:57:56;;;;;;;;;;;;;;;21.46;20.88;98667.22;5110169;28;19924;-84
2023/05/01 02:00:23;;;;;;;;;;;;;;;21.11;21.70;98662.47;5101647;28;20310;-84
2023/05/01 02:02:49;;;;;;;;;;;;;;;20.75;22.03;98658.06;5102217;28;19928;-84
2023/05/01 02:05:16;;;;;;;;;;;;;;;20.76;22.31;98657.66;5106208;28;20337;-84
2023/05/01 02:07:45;;;;;;;;;;;;;;;20.88;22.13;98660.06;5110137;28;19920;-84
2023/05/01 02:10:12;;;;;;;;;;;;;;;21.09;21.79;98656.50;5110274;28;19927;-84
2023/05/01 02:12:39;;;;;;;;;;;;;;;21.14;21.62;98653.31;5108937;28;19997;-85
2023/05/01 02:15:06;;;;;;;;;;;;;;;21.12;21.45;98648.09;5111535;28;20443;-84
2023/05/01 02:17:34;;;;;;;;;;;;;;;21.02;22.04;98651.69;5107878;28;19964;-84
2023/05/01 02:20:03;;;;;;;;;;;;;;;21.04;21.41;98646.53;5112375;28;19920;-84
2023/05/01 02:22:29;;;;;;;;;;;;;;;21.03;21.43;98649.66;5109547;28;19929;-84
2023/05/01 02:24:56;;;;;;;;;;;;;;;21.13;21.46;98640.53;5111731;28;19945;-85
2023/05/01 02:27:25;;;;;;;;;;;;;;;21.32;21.16;98638.13;5108318;28;20015;-85
2023/05/01 02:29:52;;;;;;;;;;;;;;;21.33;20.96;98644.50;5111999;28;20379;-85
2023/05/01 02:32:18;;;;;;;;;;;;;;;21.32;21.29;98648.47;5114017;28;19915;-84
2023/05/01 02:34:44;;;;;;;;;;;;;;;21.19;20.96;98641.72;5100208;28;20268;-84
2023/05/01 02:37:11;;;;;;;;;;;;;;;20.99;21.50;98643.28;5110167;28;20391;-85
2023/05/01 02:39:37;;;;;;;;;;;;;;;21.13;21.51;98635.75;5113136;28;19919;-85
2023/05/01 02:42:05;;;;;;;;;;;;;;;21.26;21.23;98633.34;5112750;28;20334;-84
2023/05/01 02:44:37;;;;;;;;;;;;;;;21.23;21.50;98631.34;5110490;28;19951;-84
2023/05/01 02:47:03;;;;;;;;;;;;;;;21.04;21.61;98638.16;5112545;28;20378;-84
2023/05/01 02:49:30;;;;;;;;;;;;;;;21.02;21.38;98640.53;5111293;28;19916;-85
2023/05/01 02:51:56;;;;;;;;;;;;;;;21.15;21.47;98636.13;5112526;28;20408;-85
2023/05/01 02:54:22;;;;;;;;;;;;;;;20.88;21.98;98632.16;5103419;28;20022;-85
2023/05/01 02:56:48;;;;;;;;;;;;;;;21.04;21.72;98632.56;5111093;28;20066;-85
2023/05/01 02:59:15;;;;;;;;;;;;;;;21.03;21.55;98630.13;5111800;28;20397;-85
2023/05/01 03:01:41;;;;;;;;;;;;;;;20.93;22.07;98622.56;5113945;28;19920;-85
2023/05/01 03:04:07;;;;;;;;;;;;;;;21.15;21.69;98627.75;5109108;28;19927;-85
2023/05/01 03:06:33;;;;;;;;;;;;;;;21.30;22.01;98622.94;5113287;28;19924;-85
2023/05/01 03:08:59;;;;;;;;;;;;;;;21.45;21.67;98620.94;5114471;28;19945;-84
2023/05/01 03:11:25;;;;;;;;;;;;;;;21.39;21.66;98614.94;5112645;28;20348;-85
2023/05/01 03:13:52;;;;;;;;;;;;;;;20.86;22.18;98611.41;5106519;28;20867;-85
2023/05/01 03:16:18;;;;;;;;;;;;;;;20.87;22.70;98605.41;5110560;28;20286;-85
2023/05/01 03:18:44;;;;;;;;;;;;;;;21.14;21.95;98608.63;5114458;28;19927;-85
2023/05/01 03:21:11;;;;;;;;;;;;;;;21.19;22.15;98613.81;5110960;28;19927;-87
2023/05/01 03:23:37;;;;;;;;;;;;;;;21.32;22.17;98609.38;5105129;28;19927;-85
2023/05/01 03:26:03;;;;;;;;;;;;;;;21.47;21.98;98612.94;5116182;28;19920;-86
2023/05/01 03:28:29;;;;;;;;;;;;;;;21.60;22.09;98606.50;5115424;28;19924;-86
2023/05/01 03:30:56;;;;;;;;;;;;;;;21.56;21.58;98602.13;5114424;28;20423;-86
2023/05/01 03:33:22;;;;;;;;;;;;;;;21.38;22.25;98602.16;5112986;28;19968;-85
2023/05/01 03:35:57;;;;;;;;;;;;;;;21.11;22.66;98599.06;5110478;28;19965;-86
2023/05/01 03:38:25;;;;;;;;;;;;;;;20.96;22.40;98597.44;5111196;28;19934;-86
2023/05/01 03:40:51;;;;;;;;;;;;;;;21.11;22.10;98593.47;5115870;28;20377;-86
2023/05/01 03:43:17;;;;;;;;;;;;;;;21.29;22.00;98602.59;5116672;28;19920;-87
2023/05/01 03:45:43;;;;;;;;;;;;;;;21.20;22.50;98590.25;5113501;28;20022;-86
2023/05/01 03:48:09;;;;;;;;;;;;;;;21.22;22.54;98590.63;5107116;28;20454;-85
2023/05/01 03:50:35;;;;;;;;;;;;;;;21.47;22.58;98594.16;5113303;28;20018;-86
2023/05/01 03:53:01;;;;;;;;;;;;;;;21.81;22.60;98592.44;5109705;28;20357;-85
2023/05/01 03:55:27;;;;;;;;;;;;;;;22.36;22.45;98586.16;5105828;28;19949;-85
2023/05/01 03:57:53;;;;;;;;;;;;;;;22.92;22.63;98588.53;5112709;28;19976;-85
2023/05/01 04:00:19;;;;;;;;;;;;;;;23.48;22.29;98592.00;5112522;28;19920;-85
2023/05/01 04:02:46;;;;;;;;;;;;;;;23.95;21.98;98591.78;5105915;28;20125;-85
2023/05/01 04:05:12;;;;;;;;;;;;;;;24.25;22.48;98593.03;5115172;28;19919;-85
2023/05/01 04:07:38;;;;;;;;;;;;;;;24.42;22.28;98589.16;5114121;28;19919;-85
2023/05/01 04:10:06;;;;;;;;;;;;;;;24.60;21.36;98589.66;5112978;28;19919;-85
2023/05/01 04:12:32;;;;;;;;;;;;;;;24.55;21.83;98593.75;5108220;28;20014;-85
2023/05/01 04:14:58;;;;;;;;;;;;;;;24.28;22.85;98601.38;5115887;28;19920;-85
2023/05/01 04:17:24;;;;;;;;;;;;;;;24.38;24.22;98591.22;5096743;28;19923;-85
2023/05/01 04:19:50;;;;;;;;;;;;;;;24.85;23.85;98592.13;5110387;28;19926;-85
2023/05/01 04:22:16;;;;;;;;;;;;;;;24.99;22.87;98594.69;5114987;28;20295;-86
2023/05/01 04:24:42;;;;;;;;;;;;;;;24.90;23.97;98603.63;5115985;28;19919;-86
2023/05/01 04:27:08;;;;;;;;;;;;;;;24.88;24.27;98594.84;5096769;28;20341;-86
2023/05/01 04:29:34;;;;;;;;;;;;;;;24.98;25.24;98593.06;5115899;28;19919;-86
2023/05/01 04:32:00;;;;;;;;;;;;;;;25.10;23.77;98584.84;5108506;28;19966;-86
2023/05/01 04:34:28;;;;;;;;;;;;;;;25.01;23.29;98595.84;5108456;28;19928;-87
2023/05/01 04:36:56;;;;;;;;;;;;;;;24.83;24.02;98598.16;5103879;28;19920;-87
2023/05/01 04:39:22;;;;;;;;;;;;;;;24.74;24.10;98593.03;5101654;28;19958;-88
2023/05/01 04:41:48;;;;;;;;;;;;;;;24.71;23.95;98591.06;5100274;28;19919;-88
2023/05/01 04:44:14;;;;;;;;;;;;;;;24.51;24.59;98598.63;5107595;28;19928;-87
2023/05/01 04:46:40;;;;;;;;;;;;;;;24.74;24.17;98592.25;5099497;28;19923;-86
2023/05/01 04:49:08;;;;;;;;;;;;;;;24.96;23.77;98590.72;5103560;28;19924;-86
2023/05/01 04:51:34;;;;;;;;;;;;;;;25.08;24.51;98586.47;5104407;28;20429;-86
2023/05/01 04:54:00;;;;;;;;;;;;;;;25.22;24.45;98591.84;5101779;28;19916;-85
2023/05/01 04:56:26;;;;;;;;;;;;;;;25.31;24.35;98592.88;5108536;28;19945;-85
2023/05/01 04:58:52;;;;;;;;;;;;;;;25.50;22.73;98582.91;5112940;28;19924;-85
2023/05/01 05:01:18;;;;;;;;;;;;;;;25.51;23.32;98581.66;5109029;28;19973;-86
2023/05/01 05:03:44;;;;;;;;;;;;;;;25.27;24.03;98582.94;5094302;28;19923;-86
2023/05/01 05:06:10;;;;;;;;;;;;;;;24.79;23.43;98585.38;5110340;28;20325;-85
2023/05/01 05:08:36;;;;;;;;;;;;;;;24.63;25.70;98581.19;5113755;28;19930;-85
2023/05/01 05:11:02;;;;;;;;;;;;;;;25.07;24.40;98585.69;5112171;28;19948;-85
2023/05/01 05:13:28;;;;;;;;;;;;;;;25.46;23.83;98582.19;5112580;28;20686;-85
2023/05/01 05:15:54;;;;;;;;;;;;;;;25.48;25.12;98581.75;5112597;28;19965;-85
2023/05/01 05:18:20;;;;;;;;;;;;;;;25.48;23.73;98581.75;5107227;28;19916;-86
2023/05/01 05:20:46;;;;;;;;;;;;;;;25.55;24.35;98587.22;5109980;28;19954;-85
2023/05/01 05:23:12;;;;;;;;;;;;;;;25.55;23.72;98590.84;5112969;28;20068;-86
2023/05/01 05:25:38;;;;;;;;;;;;;;;25.78;24.37;98581.53;5110327;28;19924;-86
2023/05/01 05:28:04;;;;;;;;;;;;;;;25.58;23.60;98581.53;5113443;28;19974;-86
2023/05/01 05:30:30;;;;;;;;;;;;;;;24.89;24.80;98590.03;5109114;28;19934;-87
2023/05/01 05:32:56;;;;;;;;;;;;;;;24.96;23.90;98579.47;5105013;28;20401;-86
2023/05/01 05:35:22;;;;;;;;;;;;;;;24.99;23.44;98580.63;5102507;28;19920;-86
2023/05/01 05:37:49;;;;;;;;;;;;;;;24.92;25.07;98583.56;5112630;28;19955;-85
2023/05/01 05:40:15;;;;;;;;;;;;;;;25.57;24.15;98584.78;5113540;28;19920;-86
2023/05/01 05:42:41;;;;;;;;;;;;;;;26.13;22.27;98577.97;5113320;28;19923;-85
2023/05/01 05:45:07;;;;;;;;;;;;;;;26.09;22.01;98586.47;5111378;28;19926;-86
2023/05/01 05:47:33;;;;;;;;;;;;;;;26.38;21.91;98571.78;5074634;28;19969;-85
2023/05/01 05:49:59;;;;;;;;;;;;;;;26.44;23.68;98592.56;5103362;28;19922;-85
2023/05/01 05:52:26;;;;;;;;;;;;;;;26.96;20.74;98584.06;5110647;28;19923;-86
2023/05/01 05:54:52;;;;;;;;;;;;;;;26.74;21.49;98586.59;5112848;28;19920;-85
2023/05/01 05:57:18;;;;;;;;;;;;;;;26.54;22.10;98592.31;5113485;28;19977;-85
2023/05/01 05:59:44;;;;;;;;;;;;;;;26.06;20.41;98586.56;5111631;28;19920;-85
2023/05/01 06:02:10;;;;;;;;;;;;;;;25.21;22.41;98591.03;5102695;28;19921;-85
2023/05/01 06:04:36;;;;;;;;;;;;;;;25.47;22.21;98586.56;5108682;28;19924;-85
2023/05/01 06:07:02;;;;;;;;;;;;;;;25.65;22.59;98584.19;5109861;28;19916;-85
2023/05/01 06:09:28;;;;;;;;;;;;;;;26.46;22.74;98579.63;5104846;28;20394;-85
2023/05/01 06:11:54;;;;;;;;;;;;;;;26.91;21.61;98584.59;5088852;28;19928;-85
2023/05/01 06:14:20;;;;;;;;;;;;;;;27.23;21.80;98588.19;5109239;28;19924;-85
2023/05/01 06:16:46;;;;;;;;;;;;;;;27.28;20.22;98587.63;5093001;28;19935;-85
2023/05/01 06:19:12;;;;;;;;;;;;;;;26.65;21.50;98586.44;5108999;28;20478;-85
2023/05/01 06:21:38;;;;;;;;;;;;;;;26.48;20.95;98593.25;5109934;28;20435;-85
2023/05/01 06:24:05;;;;;;;;;;;;;;;26.34;21.83;98585.16;5091524;28;19924;-85
2023/05/01 06:26:31;;;;;;;;;;;;;;;26.26;21.10;98584.50;5111707;28;19916;-85
2023/05/01 06:28:57;;;;;;;;;;;;;;;25.26;22.01;98586.94;5112336;28;19923;-85
2023/05/01 06:31:23;;;;;;;;;;;;;;;25.60;22.57;98581.88;5108939;28;19916;-85
2023/05/01 06:33:49;;;;;;;;;;;;;;;26.33;21.86;98577.91;5104826;28;20011;-85
2023/05/01 06:36:15;;;;;;;;;;;;;;;26.59;19.45;98585.34;5109035;28;19955;-85
2023/05/01 06:38:47;;;;;;;;;;;;;;;25.43;23.39;98580.19;5111715;28;19951;-85
2023/05/01 06:41:14;;;;;;;;;;;;;;;25.05;23.82;98579.69;5103596;28;19920;-85
2023/05/01 06:43:40;;;;;;;;;;;;;;;25.98;23.28;98580.28;5109788;28;19931;-85
2023/05/01 06:46:06;;;;;;;;;;;;;;;26.48;19.54;98576.38;5111545;28;19930;-85
2023/05/01 06:48:32;;;;;;;;;;;;;;;26.08;25.69;98572.84;5105361;28;19968;-86
2023/05/01 06:50:58;;;;;;;;;;;;;;;24.60;27.48;98584.84;5087111;28;19923;-85
2023/05/01 06:53:24;;;;;;;;;;;;;;;25.43;21.71;98580.19;5112528;28;19926;-85
2023/05/01 06:55:50;;;;;;;;;;;;;;;25.74;21.97;98584.41;5098220;28;19932;-85
2023/05/01 06:58:16;;;;;;;;;;;;;;;25.26;22.11;98584.13;5103788;28;19928;-84
2023/05/01 07:00:42;;;;;;;;;;;;;;;25.55;24.35;98578.78;5101555;28;19926;-85
2023/05/01 07:03:08;;;;;;;;;;;;;;;25.94;21.18;98570.34;5105465;28;20375;-85
2023/05/01 07:05:34;;;;;;;;;;;;;;;23.47;29.30;98580.00;5100564;28;20395;-86
2023/05/01 07:08:00;;;;;;;;;;;;;;;23.96;29.71;98578.56;5100570;28;19920;-86
2023/05/01 07:10:26;;;;;;;;;;;;;;;24.49;24.14;98584.22;5101668;28;19963;-85
2023/05/01 07:12:52;;;;;;;;;;;;;;;24.63;26.83;98580.41;5097884;28;19919;-86
2023/05/01 07:15:18;;;;;;;;;;;;;;;23.93;30.24;98583.00;5100945;28;19934;-85
2023/05/01 07:17:45;;;;;;;;;;;;;;;22.37;30.93;98568.97;5096685;28;20438;-85
2023/05/01 07:20:11;;;;;;;;;;;;;;;23.41;24.69;98569.66;5096472;28;19923;-85
2023/05/01 07:22:37;;;;;;;;;;;;;;;23.86;24.76;98579.50;5098919;28;19919;-85
2023/05/01 07:25:03;;;;;;;;;;;;;;;25.35;23.55;98573.91;5101279;28;19927;-85
2023/05/01 07:27:29;;;;;;;;;;;;;;;23.19;29.05;98574.66;5107849;28;19920;-86
2023/05/01 07:29:56;;;;;;;;;;;;;;;24.47;23.10;98575.44;5096110;28;20005;-85
2023/05/01 07:32:22;;;;;;;;;;;;;;;26.09;22.07;98568.81;5101533;28;20345;-85
2023/05/01 07:34:48;;;;;;;;;;;;;;;22.82;30.63;98574.63;5104502;28;19927;-85
2023/05/01 07:37:15;;;;;;;;;;;;;;;23.17;25.11;98575.09;5099281;28;19926;-85
2023/05/01 07:39:41;;;;;;;;;;;;;;;24.09;29.54;98573.19;5095464;28;20347;-86
2023/05/01 07:42:07;;;;;;;;;;;;;;;24.37;25.57;98579.19;5108085;28;20015;-85
2023/05/01 07:44:33;;;;;;;;;;;;;;;25.70;24.09;98571.66;5101791;28;20418;-86
2023/05/01 07:47:05;;;;;;;;;;;;;;;26.60;21.89;98572.88;5111893;28;19977;-85
2023/05/01 07:49:36;;;;;;;;;;;;;;;27.13;22.42;98563.88;5093067;28;19926;-85
2023/05/01 07:52:02;;;;;;;;;;;;;;;27.44;22.02;98578.38;5104640;28;19920;-85
2023/05/01 07:54:28;;;;;;;;;;;;;;;27.17;20.71;98569.41;5102335;28;19920;-85
2023/05/01 07:56:55;;;;;;;;;;;;;;;24.44;28.77;98567.88;5106694;28;19966;-87
2023/05/01 07:59:21;;;;;;;;;;;;;;;23.13;31.80;98579.13;5106467;28;19977;-90
2023/05/01 08:01:47;;;;;;;;;;;;;;;23.32;25.89;98575.72;5106273;28;19923;-87
2023/05/01 08:04:13;;;;;;;;;;;;;;;22.98;27.24;98572.88;5112713;28;19920;-86
2023/05/01 08:06:39;;;;;;;;;;;;;;;23.64;25.89;98567.75;5109896;28;20034;-87
2023/05/01 08:09:05;;;;;;;;;;;;;;;24.50;26.37;98573.81;5093007;28;19932;-84
2023/05/01 08:11:32;;;;;;;;;;;;;;;25.94;23.56;98570.34;5092520;28;19988;-84
2023/05/01 08:13:58;;;;;;;;;;;;;;;26.89;23.90;98568.13;5099262;28;19940;-85
2023/05/01 08:16:24;;;;;;;;;;;;;;;26.30;24.52;98573.94;5077955;28;19942;-84
2023/05/01 08:18:50;;;;;;;;;;;;;;;23.96;31.55;98573.75;5097309;28;19939;-85
2023/05/01 08:21:16;;;;;;;;;;;;;;;;;;5082789;28;20014;-86
2023/05/01 08:23:42;;;;;;;;;;;;;;;24.25;24.14;98576.19;5106561;28;20006;-85
2023/05/01 08:26:08;;;;;;;;;;;;;;;24.58;23.59;98570.44;5106123;28;20272;-84
2023/05/01 08:28:34;;;;;;;;;;;;;;;25.67;26.84;98562.06;5111249;28;19924;-84
2023/05/01 08:31:01;;;;;;;;;;;;;;;26.58;21.76;98569.69;5107121;28;20014;-85
2023/05/01 08:33:27;;;;;;;;;;;;;;;27.87;21.95;98558.97;5107492;27;20505;-86
2023/05/01 08:35:53;;;;;;;;;;;;;;;26.98;25.98;98562.66;5105954;27;19928;-85
2023/05/01 08:38:19;;;;;;;;;;;;;;;24.90;28.20;98550.25;5102388;28;19920;-83
2023/05/01 08:40:49;;;;;;;;;;;;;;;25.02;21.97;98560.88;5101173;28;19989;-83
2023/05/01 08:43:16;;;;;;;;;;;;;;;26.37;28.30;98545.63;5099174;28;19942;-82
2023/05/01 08:45:43;;;;;;;;;;;;;;;24.59;30.29;98555.19;5104744;28;19920;-82
2023/05/01 08:48:09;;;;;;;;;;;;;;;26.00;22.01;98551.69;5101840;28;19920;-83
2023/05/01 08:50:37;;;;;;;;;;;;;;;26.17;27.29;98559.00;5104333;28;19988;-82
2023/05/01 08:53:04;;;;;;;;;;;;;;;26.38;20.21;98555.69;5103369;28;19920;-83
2023/05/01 08:55:31;;;;;;;;;;;;;;;25.85;26.22;98547.63;5104526;28;19928;-83
2023/05/01 08:57:57;;;;;;;;;;;;;;;27.78;21.27;98541.91;5103583;28;19924;-86
2023/05/01 09:00:23;;;;;;;;;;;;;;;27.80;22.59;98547.88;5101315;28;19924;-84
2023/05/01 09:02:50;;;;;;;;;;;;;;;27.02;27.46;98543.63;5098576;28;19972;-84
2023/05/01 09:05:17;;;;;;;;;;;;;;;27.69;20.92;98538.16;5102123;28;19924;-85
2023/05/01 09:07:47;;;;;;;;;;;;;;;28.27;19.87;98542.44;5109701;28;19924;-84
2023/05/01 09:10:14;;;;;;;;;;;;;;;28.57;20.04;98532.59;5107058;28;19975;-82
2023/05/01 09:12:43;;;;;;;;;;;;;;;28.79;20.99;98527.84;5106055;28;19927;-84
2023/05/01 09:15:10;;;;;;;;;;;;;;;27.23;22.24;98528.16;5103406;28;20027;-85
2023/05/01 09:17:36;;;;;;;;;;;;;;;27.84;24.80;98523.16;5107911;28;20427;-88
2023/05/01 09:20:06;;;;;;;;;;;;;;;28.67;22.15;98531.47;5108805;28;19924;-86
2023/05/01 09:22:33;;;;;;;;;;;;;;;29.39;21.19;98529.38;5104714;28;20010;-85
2023/05/01 09:25:00;;;;;;;;;;;;;;;28.21;25.46;98527.31;5103355;28;19928;-87
2023/05/01 09:27:26;;;;;;;;;;;;;;;28.11;19.90;98522.00;5108360;28;19959;-85
2023/05/01 09:29:52;;;;;;;;;;;;;;;27.02;24.46;98512.63;5107096;28;19928;-86
2023/05/01 09:32:20;;;;;;;;;;;;;;;27.50;20.44;98503.25;5105603;28;19916;-86
2023/05/01 09:34:46;;;;;;;;;;;;;;;26.68;27.50;98506.66;5108139;28;19963;-87
2023/05/01 09:37:27;;;;;;;;;;;;;;;26.23;25.36;98514.22;5106593;28;20038;-86
2023/05/01 09:40:03;;;;;;;;;;;;;;;27.64;22.90;98505.66;5106168;28;19923;-85
2023/05/01 09:42:30;;;;;;;;;;;;;;;26.30;24.40;98512.00;5103045;28;19920;-86
2023/05/01 09:44:57;;;;;;;;;;;;;;;27.34;22.48;98506.91;5109970;28;19931;-86
2023/05/01 09:47:23;;;;;;;;;;;;;;;26.76;24.75;98505.28;5108522;28;19927;-86
2023/05/01 09:49:49;;;;;;;;;;;;;;;25.88;29.21;98510.19;5107688;28;19920;-86
2023/05/01 09:52:15;;;;;;;;;;;;;;;26.78;24.68;98504.81;5107509;28;19927;-88
2023/05/01 09:54:42;;;;;;;;;;;;;;;28.11;22.64;98502.22;5107847;28;19919;-86
2023/05/01 09:57:08;;;;;;;;;;;;;;;28.92;19.27;98485.38;5107847;28;20057;-87
2023/05/01 09:59:35;;;;;;;;;;;;;;;28.11;21.21;98486.09;5112024;28;19971;-85
2023/05/01 10:02:01;;;;;;;;;;;;;;;28.20;24.62;98493.88;5106199;28;20014;-86
2023/05/01 10:04:33;;;;;;;;;;;;;;;27.11;24.57;98478.97;5105789;28;20011;-89
2023/05/01 10:07:11;;;;;;;;;;;;;;;25.70;30.23;98482.44;5107344;28;19927;-89
2023/05/01 10:09:37;;;;;;;;;;;;;;;25.39;29.51;98479.06;5106809;28;19985;-85
2023/05/01 10:12:03;;;;;;;;;;;;;;;25.05;30.91;98472.13;5105147;28;19920;-87
2023/05/01 10:14:32;;;;;;;;;;;;;;;27.23;23.87;98469.75;5104121;28;19920;-85
2023/05/01 10:16:58;;;;;;;;;;;;;;;27.14;21.06;98471.63;5107542;28;19919;-86
2023/05/01 10:19:24;;;;;;;;;;;;;;;29.24;23.07;98465.28;5112436;28;19930;-85
2023/05/01 10:21:52;;;;;;;;;;;;;;;29.19;21.43;98468.72;5111353;28;19923;-86
2023/05/01 10:24:18;;;;;;;;;;;;;;;29.50;22.80;98469.53;5107281;28;19964;-85
2023/05/01 10:26:47;;;;;;;;;;;;;;;29.75;22.65;98458.06;5098097;28;19928;-86
2023/05/01 10:29:13;;;;;;;;;;;;;;;27.90;23.32;98464.13;5111490;28;19924;-86
2023/05/01 10:31:39;;;;;;;;;;;;;;;28.85;20.16;98454.56;5110237;28;19966;-86
2023/05/01 10:34:05;;;;;;;;;;;;;;;27.66;28.61;98458.03;5108555;28;20007;-86
2023/05/01 10:36:46;;;;;;;;;;;;;;;28.45;21.98;98457.16;5112680;28;19945;-84
2023/05/01 10:39:31;;;;;;;;;;;;;;;27.96;26.28;98456.69;5100789;28;19934;-85
2023/05/01 10:41:57;;;;;;;;;;;;;;;27.10;28.93;98442.75;5111017;28;20379;-84
2023/05/01 10:44:25;;;;;;;;;;;;;;;26.93;27.88;98444.06;5111063;28;20008;-84
2023/05/01 10:46:51;;;;;;;;;;;;;;;27.00;24.31;98436.16;5110253;28;20031;-84
2023/05/01 10:49:18;;;;;;;;;;;;;;;28.84;22.17;98439.66;5075332;28;19916;-84
2023/05/01 10:52:00;;;;;;;;;;;;;;;27.32;29.24;98440.91;5110983;28;19923;-85
2023/05/01 10:54:27;;;;;;;;;;;;;;;26.95;27.63;98435.94;5103433;28;19920;-85
2023/05/01 10:56:54;;;;;;;;;;;;;;;26.17;23.84;98428.72;5098991;28;20007;-83
2023/05/01 10:59:20;;;;;;;;;;;;;;;26.18;30.64;98433.13;5108667;28;19951;-86
2023/05/01 11:01:47;;;;;;;;;;;;;;;27.67;23.29;98431.41;5108711;28;20019;-84
2023/05/01 11:04:23;;;;;;;;;;;;;;;29.58;21.97;98430.44;5094294;28;19951;-85
2023/05/01 11:07:04;;;;;;;;;;;;;;;30.80;19.50;98428.69;5107520;28;19934;-83
2023/05/01 11:09:39;;;;;;;;;;;;;;;30.18;23.56;98428.84;5112463;28;19927;-86
2023/05/01 11:12:06;;;;;;;;;;;;;;;28.62;25.95;98422.66;5111498;28;20077;-85
2023/05/01 11:14:51;;;;;;;;;;;;;;;29.00;24.31;98413.22;5109813;28;19923;-85
2023/05/01 11:17:36;;;;;;;;;;;;;;;28.85;19.39;98421.44;5107328;28;19938;-84
2023/05/01 11:20:02;;;;;;;;;;;;;;;29.52;20.07;98407.63;5117585;28;19922;-83
2023/05/01 11:22:29;;;;;;;;;;;;;;;29.45;21.94;98405.09;5111774;28;20260;-83
2023/05/01 11:24:55;;;;;;;;;;;;;;;27.10;30.50;98415.34;5098573;28;20379;-86
2023/05/01 11:27:21;;;;;;;;;;;;;;;26.54;27.35;98406.41;5115789;28;20379;-85
2023/05/01 11:29:48;;;;;;;;;;;;;;;27.22;23.58;98399.69;5117415;28;19926;-86
2023/05/01 11:32:17;;;;;;;;;;;;;;;28.38;27.76;98387.53;5113275;28;19920;-84
2023/05/01 11:34:43;;;;;;;;;;;;;;;27.78;22.17;98398.00;5105157;28;19916;-84
2023/05/01 11:37:09;;;;;;;;;;;;;;;28.78;25.05;98387.00;5113148;28;20012;-84
2023/05/01 11:39:35;;;;;;;;;;;;;;;28.40;28.13;98384.28;5112862;28;19982;-84
2023/05/01 11:42:08;;;;;;;;;;;;;;;28.88;21.62;98382.97;5105416;28;20363;-84
2023/05/01 11:44:34;;;;;;;;;;;;;;;28.14;27.69;98388.41;5104727;28;19977;-85
2023/05/01 11:47:01;;;;;;;;;;;;;;;28.77;20.11;98380.56;5109540;28;19916;-85
2023/05/01 11:49:27;;;;;;;;;;;;;;;30.39;20.82;98374.16;5112368;28;19929;-86
2023/05/01 11:51:57;;;;;;;;;;;;;;;30.15;20.66;98373.16;5113492;28;19923;-85
2023/05/01 11:54:23;;;;;;;;;;;;;;;28.81;28.13;98364.25;5114832;28;20010;-86
2023/05/01 11:56:57;;;;;;;;;;;;;;;28.43;27.61;98374.88;5116051;28;19926;-86
2023/05/01 11:59:23;;;;;;;;;;;;;;;27.51;26.06;98369.44;5113770;28;19930;-85
2023/05/01 12:01:49;;;;;;;;;;;;;;;28.97;21.50;98368.91;5105848;28;19924;-84
2023/05/01 12:04:25;;;;;;;;;;;;;;;29.23;27.02;98365.50;5105490;28;20390;-85
2023/05/01 12:06:51;;;;;;;;;;;;;;;30.64;18.23;98361.75;5105885;28;19928;-85
2023/05/01 12:09:18;;;;;;;;;;;;;;;30.69;23.51;98358.28;5108081;28;19928;-85
2023/05/01 12:11:48;;;;;;;;;;;;;;;30.29;19.15;98361.22;5111074;28;19965;-84
2023/05/01 12:14:14;;;;;;;;;;;;;;;31.23;19.27;98361.06;5103622;28;20259;-84
2023/05/01 12:16:41;;;;;;;;;;;;;;;31.22;20.00;98344.53;5107156;28;19923;-84
2023/05/01 12:19:07;;;;;;;;;;;;;;;30.65;25.58;98351.97;5111552;28;20379;-86
2023/05/01 12:21:35;;;;;;;;;;;;;;;28.19;27.75;98348.28;5089249;28;19924;-86
2023/05/01 12:24:11;;;;;;;;;;;;;;;26.86;28.96;98345.63;5109937;28;19951;-84
2023/05/01 12:26:37;;;;;;;;;;;;;;;28.46;25.15;98337.25;5111981;28;19919;-86
2023/05/01 12:29:04;;;;;;;;;;;;;;;27.46;28.42;98341.78;5104608;28;19943;-83
2023/05/01 12:31:30;;;;;;;;;;;;;;;29.19;20.12;98325.25;5108244;28;19929;-84
2023/05/01 12:33:57;;;;;;;;;;;;;;;29.77;22.38;98322.53;5106361;28;20373;-86
2023/05/01 12:36:24;;;;;;;;;;;;;;;28.08;25.72;98319.66;5103182;28;19959;-85
2023/05/01 12:38:57;;;;;;;;;;;;;;;30.03;20.47;98311.75;5090380;28;20344;-85
2023/05/01 12:41:31;;;;;;;;;;;;;;;31.18;20.13;98309.88;5107942;28;20018;-85
2023/05/01 12:43:57;;;;;;;;;;;;;;;29.70;26.49;98313.53;5114018;28;19923;-86
2023/05/01 12:46:23;;;;;;;;;;;;;;;28.15;28.31;98316.53;5104827;28;19928;-86
2023/05/01 12:48:49;;;;;;;;;;;;;;;29.93;20.98;98304.50;5106898;28;19927;-85